»·PEaware :: N32G L52-L88

N32G :: L52-L88

FLIGHT INFORMATION

Flight Status: Arrived
Operator: Privately registered:
United States
More flights under this callsign
Pilot: Patrick B. (17678)
Aircraft: CESSNA 172 SKYHAWK
(C172)
More flights by this aircraft type
Origin: L52 Oceano Co
United States
Destination: L88 New Cuyama
United States
More flights between these airports :: More routes between these airports
Route: N/A
File this flight plan on PilotEdge
Remarks: CAT-01 RATING FLIGHT
Altitude:
(Current/Filed)
3,500ft
Speed:
(Current/Filed)
100kts
Departed: 29-Dec-17 08:17 PM
Arrived: 29-Dec-17 08:48 PM
Distance/Time
Traveled:
47nm/0:31
Distance/Time
To Go:
Arrived

Flight Plot

Page will automatically refresh every two minutes.

Flight plan parsing failed; only flown route is shown


Map Options




Map Legend


Flown Route
Filed Route
Departure Airport
Arrival Airport
Navaid (VOR, NDB)
Fix

Horizontal Profiles

Position Reports

Time Latitude Longitude Heading Altitude Ground
Speed
29-Dec-17 20:16 35.103313 -120.624562 213 18ft 0kts
29-Dec-17 20:17 35.103313 -120.624562 213 18ft 0kts
29-Dec-17 20:18 35.103308 -120.624567 211 18ft 1kts
29-Dec-17 20:19 35.103481 -120.625306 202 18ft 0kts
29-Dec-17 20:20 35.103481 -120.625306 202 18ft 0kts
29-Dec-17 20:21 35.103480 -120.625306 202 18ft 0kts
29-Dec-17 20:22 35.103480 -120.625306 202 18ft 0kts
29-Dec-17 20:23 35.098039 -120.616295 126 233ft 72kts
29-Dec-17 20:24 35.090803 -120.593318 100 889ft 75kts
29-Dec-17 20:25 35.087433 -120.567751 102 1476ft 76kts
29-Dec-17 20:26 35.082219 -120.541574 102 2104ft 81kts
29-Dec-17 20:27 35.077008 -120.515216 102 2901ft 78kts
29-Dec-17 20:28 35.071779 -120.488856 102 3516ft 99kts
29-Dec-17 20:29 35.059707 -120.452604 104 3500ft 115kts
29-Dec-17 20:30 35.052219 -120.416010 103 3501ft 110kts
29-Dec-17 20:31 35.044770 -120.379825 103 3501ft 109kts
29-Dec-17 20:32 35.037313 -120.343970 104 3501ft 109kts
29-Dec-17 20:33 35.029954 -120.308910 104 3501ft 109kts
29-Dec-17 20:34 35.022343 -120.273012 104 3501ft 109kts
29-Dec-17 20:35 35.014640 -120.237037 104 3501ft 109kts
29-Dec-17 20:36 35.006880 -120.201156 104 3501ft 109kts
29-Dec-17 20:37 34.999056 -120.165332 105 3501ft 109kts
29-Dec-17 20:38 34.991157 -120.129528 105 3501ft 109kts
29-Dec-17 20:39 34.983184 -120.093745 105 3501ft 109kts
29-Dec-17 20:40 34.975388 -120.059080 105 3685ft 95kts
29-Dec-17 20:41 34.968881 -120.030234 105 4078ft 86kts
29-Dec-17 20:42 34.962407 -119.998247 102 4426ft 96kts
29-Dec-17 20:43 34.957055 -119.968811 101 5212ft 85kts
29-Dec-17 20:44 34.951609 -119.939145 102 5601ft 101kts
29-Dec-17 20:45 34.946795 -119.904621 87 5598ft 103kts
29-Dec-17 20:46 34.948550 -119.873611 92 5370ft 94kts
29-Dec-17 20:47 34.946349 -119.845264 95 4950ft 79kts
29-Dec-17 20:48 34.952055 -119.820144 69 4506ft 78kts
29-Dec-17 20:49 34.958577 -119.794897 82 4068ft 78kts
29-Dec-17 20:50 34.959908 -119.768664 94 3582ft 84kts
29-Dec-17 20:51 34.957727 -119.739980 95 3045ft 82kts
29-Dec-17 20:52 34.950950 -119.712631 118 2439ft 80kts
29-Dec-17 20:53 34.942287 -119.691314 116 2171ft 61kts
29-Dec-17 20:54 34.939327 -119.683630 292 2186ft 39kts
29-Dec-17 20:55 34.942639 -119.690460 28 2157ft 0kts
29-Dec-17 20:56 34.942639 -119.690460 28 2157ft 0kts
29-Dec-17 20:57 34.942639 -119.690460 28 2157ft 0kts
29-Dec-17 20:58 34.942639 -119.690460 28 2157ft 0kts
29-Dec-17 20:59 34.942639 -119.690460 28 2157ft 0kts
29-Dec-17 21:00 34.942639 -119.690460 28 2157ft 0kts
29-Dec-17 21:01 34.942639 -119.690460 28 2157ft 0kts
29-Dec-17 21:02 34.942639 -119.690460 28 2157ft 0kts
29-Dec-17 21:03 34.942639 -119.690460 28 2157ft 0kts
29-Dec-17 21:04 34.942639 -119.690460 28 2157ft 0kts
29-Dec-17 21:05 34.942639 -119.690460 28 2157ft 0kts
29-Dec-17 21:06 34.942639 -119.690460 28 2157ft 0kts
29-Dec-17 21:07 34.942639 -119.690460 28 2157ft 0kts
29-Dec-17 21:08 34.942639 -119.690460 28 2157ft 0kts

Navigation Log

Ident Type
Flight plan parsing failed, navigation log unavailable